sensor_id;sensor_type;location;lat;lon;timestamp;pressure;altitude;pressure_sealevel;temperature;humidity
68807;BME280;55800;54.272;18.558;2023-03-14T00:01:33;98534.47;;;10.43;76.16
68807;BME280;55800;54.272;18.558;2023-03-14T00:04:04;98532.88;;;10.41;76.22
68807;BME280;55800;54.272;18.558;2023-03-14T00:06:35;98551.56;;;10.41;75.98
68807;BME280;55800;54.272;18.558;2023-03-14T00:09:05;98551.06;;;10.36;76.28
68807;BME280;55800;54.272;18.558;2023-03-14T00:11:40;98553.84;;;10.34;76.16
68807;BME280;55800;54.272;18.558;2023-03-14T00:14:09;98552.66;;;10.38;75.67
68807;BME280;55800;54.272;18.558;2023-03-14T00:16:40;98560.88;;;10.35;76.02
68807;BME280;55800;54.272;18.558;2023-03-14T00:19:09;98572.53;;;10.34;76.00
68807;BME280;55800;54.272;18.558;2023-03-14T00:21:39;98575.34;;;10.33;76.44
68807;BME280;55800;54.272;18.558;2023-03-14T00:24:09;98570.94;;;10.32;76.09
68807;BME280;55800;54.272;18.558;2023-03-14T00:26:39;98559.72;;;10.27;76.20
68807;BME280;55800;54.272;18.558;2023-03-14T00:29:09;98547.56;;;10.23;76.04
68807;BME280;55800;54.272;18.558;2023-03-14T00:31:38;98545.75;;;10.23;76.25
68807;BME280;55800;54.272;18.558;2023-03-14T00:34:09;98536.06;;;10.22;76.05
68807;BME280;55800;54.272;18.558;2023-03-14T00:36:38;98538.47;;;10.25;76.08
68807;BME280;55800;54.272;18.558;2023-03-14T00:39:08;98534.75;;;10.28;75.92
68807;BME280;55800;54.272;18.558;2023-03-14T00:41:39;98540.09;;;10.28;75.54
68807;BME280;55800;54.272;18.558;2023-03-14T00:44:08;98533.16;;;10.25;75.80
68807;BME280;55800;54.272;18.558;2023-03-14T00:46:37;98529.53;;;10.26;76.16
68807;BME280;55800;54.272;18.558;2023-03-14T00:49:08;98533.16;;;10.25;76.11
68807;BME280;55800;54.272;18.558;2023-03-14T00:51:37;98531.47;;;10.24;75.89
68807;BME280;55800;54.272;18.558;2023-03-14T00:54:06;98537.28;;;10.29;75.73
68807;BME280;55800;54.272;18.558;2023-03-14T00:56:35;98538.47;;;10.25;75.86
68807;BME280;55800;54.272;18.558;2023-03-14T00:59:06;98532.28;;;10.25;75.96
68807;BME280;55800;54.272;18.558;2023-03-14T01:01:36;98544.06;;;10.22;76.08
68807;BME280;55800;54.272;18.558;2023-03-14T01:04:07;98541.41;;;10.22;76.04
68807;BME280;55800;54.272;18.558;2023-03-14T01:06:36;98540.63;;;10.20;76.27
68807;BME280;55800;54.272;18.558;2023-03-14T01:09:06;98529.94;;;10.20;76.38
68807;BME280;55800;54.272;18.558;2023-03-14T01:11:36;98522.72;;;10.22;75.87
68807;BME280;55800;54.272;18.558;2023-03-14T01:14:07;98506.56;;;10.24;76.23
68807;BME280;55800;54.272;18.558;2023-03-14T01:16:36;98505.91;;;10.20;75.81
68807;BME280;55800;54.272;18.558;2023-03-14T01:19:06;98508.16;;;10.26;75.64
68807;BME280;55800;54.272;18.558;2023-03-14T01:21:36;98511.44;;;10.30;75.86
68807;BME280;55800;54.272;18.558;2023-03-14T01:24:06;98522.34;;;10.27;76.06
68807;BME280;55800;54.272;18.558;2023-03-14T01:26:36;98501.63;;;10.30;75.62
68807;BME280;55800;54.272;18.558;2023-03-14T01:29:08;98504.28;;;10.30;75.55
68807;BME280;55800;54.272;18.558;2023-03-14T01:31:39;98504.28;;;10.30;75.80
68807;BME280;55800;54.272;18.558;2023-03-14T01:34:08;98501.38;;;10.33;75.67
68807;BME280;55800;54.272;18.558;2023-03-14T01:36:38;98498.97;;;10.30;75.68
68807;BME280;55800;54.272;18.558;2023-03-14T01:39:07;98497.22;;;10.29;75.60
68807;BME280;55800;54.272;18.558;2023-03-14T01:41:37;98495.31;;;10.31;75.71
68807;BME280;55800;54.272;18.558;2023-03-14T01:44:10;98491.69;;;10.32;75.64
68807;BME280;55800;54.272;18.558;2023-03-14T01:46:41;98490.81;;;10.32;75.48
68807;BME280;55800;54.272;18.558;2023-03-14T01:49:20;98498.50;;;10.36;75.44
68807;BME280;55800;54.272;18.558;2023-03-14T01:52:00;98491.16;;;10.27;75.95
68807;BME280;55800;54.272;18.558;2023-03-14T01:54:34;98485.59;;;10.30;75.62
68807;BME280;55800;54.272;18.558;2023-03-14T01:57:08;98489.34;;;10.28;75.41
68807;BME280;55800;54.272;18.558;2023-03-14T01:59:45;98482.19;;;10.28;75.74
68807;BME280;55800;54.272;18.558;2023-03-14T02:02:16;98477.59;;;10.30;75.54
68807;BME280;55800;54.272;18.558;2023-03-14T02:04:46;98468.59;;;10.31;75.42
68807;BME280;55800;54.272;18.558;2023-03-14T02:07:21;98462.53;;;10.29;75.08
68807;BME280;55800;54.272;18.558;2023-03-14T02:10:04;98466.25;;;10.27;75.28
68807;BME280;55800;54.272;18.558;2023-03-14T02:12:35;98448.44;;;10.27;75.15
68807;BME280;55800;54.272;18.558;2023-03-14T02:15:25;98464.44;;;10.27;75.22
68807;BME280;55800;54.272;18.558;2023-03-14T02:18:02;98463.97;;;10.22;75.24
68807;BME280;55800;54.272;18.558;2023-03-14T02:21:02;98451.56;;;10.21;75.14
68807;BME280;55800;54.272;18.558;2023-03-14T02:23:39;98462.25;;;10.21;75.00
68807;BME280;55800;54.272;18.558;2023-03-14T02:26:17;98471.00;;;10.23;75.36
68807;BME280;55800;54.272;18.558;2023-03-14T02:28:51;98460.53;;;10.20;75.07
68807;BME280;55800;54.272;18.558;2023-03-14T02:31:23;98462.97;;;10.23;75.24
68807;BME280;55800;54.272;18.558;2023-03-14T02:33:53;98450.25;;;10.27;74.73
68807;BME280;55800;54.272;18.558;2023-03-14T02:36:23;98463.72;;;10.25;75.33
68807;BME280;55800;54.272;18.558;2023-03-14T02:39:01;98461.03;;;10.25;75.05
68807;BME280;55800;54.272;18.558;2023-03-14T02:41:35;98465.88;;;10.20;75.10
68807;BME280;55800;54.272;18.558;2023-03-14T02:44:08;98459.06;;;10.16;75.01
68807;BME280;55800;54.272;18.558;2023-03-14T02:46:38;98437.59;;;10.17;75.03
68807;BME280;55800;54.272;18.558;2023-03-14T02:49:10;98429.94;;;10.13;75.40
68807;BME280;55800;54.272;18.558;2023-03-14T02:51:43;98443.91;;;10.16;75.12
68807;BME280;55800;54.272;18.558;2023-03-14T02:54:17;98441.75;;;10.22;75.09
68807;BME280;55800;54.272;18.558;2023-03-14T03:01:41;98473.38;;;10.15;75.17
68807;BME280;55800;54.272;18.558;2023-03-14T03:04:11;98488.66;;;10.13;75.18
68807;BME280;55800;54.272;18.558;2023-03-14T03:06:40;98504.69;;;10.13;74.94
68807;BME280;55800;54.272;18.558;2023-03-14T03:09:10;98497.28;;;10.16;75.17
68807;BME280;55800;54.272;18.558;2023-03-14T03:11:40;98493.88;;;10.14;75.41
68807;BME280;55800;54.272;18.558;2023-03-14T03:14:14;98485.75;;;10.16;75.13
68807;BME280;55800;54.272;18.558;2023-03-14T03:16:44;98505.19;;;10.18;74.85
68807;BME280;55800;54.272;18.558;2023-03-14T03:19:14;98522.19;;;10.17;75.41
68807;BME280;55800;54.272;18.558;2023-03-14T03:21:45;98532.25;;;10.13;75.10
68807;BME280;55800;54.272;18.558;2023-03-14T03:24:15;98536.47;;;10.16;75.17
68807;BME280;55800;54.272;18.558;2023-03-14T03:26:44;98533.81;;;10.16;75.26
68807;BME280;55800;54.272;18.558;2023-03-14T03:29:13;98532.13;;;10.15;75.00
68807;BME280;55800;54.272;18.558;2023-03-14T03:31:44;98529.22;;;10.18;74.91
68807;BME280;55800;54.272;18.558;2023-03-14T03:34:14;98532.75;;;10.18;74.94
68807;BME280;55800;54.272;18.558;2023-03-14T03:36:44;98534.22;;;10.23;75.00
68807;BME280;55800;54.272;18.558;2023-03-14T03:39:14;98538.47;;;10.25;74.86
68807;BME280;55800;54.272;18.558;2023-03-14T03:41:47;98541.72;;;10.17;75.28
68807;BME280;55800;54.272;18.558;2023-03-14T03:44:16;98545.13;;;10.19;75.50
68807;BME280;55800;54.272;18.558;2023-03-14T03:46:47;98538.72;;;10.22;75.29
68807;BME280;55800;54.272;18.558;2023-03-14T03:49:18;98547.34;;;10.26;75.05
68807;BME280;55800;54.272;18.558;2023-03-14T03:51:47;98545.97;;;10.20;75.06
68807;BME280;55800;54.272;18.558;2023-03-14T03:54:17;98538.94;;;10.19;75.16
68807;BME280;55800;54.272;18.558;2023-03-14T03:56:46;98538.09;;;10.18;74.97
68807;BME280;55800;54.272;18.558;2023-03-14T03:59:16;98539.16;;;10.16;75.15
68807;BME280;55800;54.272;18.558;2023-03-14T04:01:47;98539.06;;;10.17;74.95
68807;BME280;55800;54.272;18.558;2023-03-14T04:04:17;98516.97;;;10.15;74.85
68807;BME280;55800;54.272;18.558;2023-03-14T04:06:46;98510.84;;;10.26;74.82
68807;BME280;55800;54.272;18.558;2023-03-14T04:09:16;98509.13;;;10.25;74.97
68807;BME280;55800;54.272;18.558;2023-03-14T04:11:48;98500.63;;;10.31;74.76
68807;BME280;55800;54.272;18.558;2023-03-14T04:14:21;98520.59;;;10.38;74.79
68807;BME280;55800;54.272;18.558;2023-03-14T04:17:06;98523.09;;;10.29;74.79
68807;BME280;55800;54.272;18.558;2023-03-14T04:19:36;98506.72;;;10.33;75.17
68807;BME280;55800;54.272;18.558;2023-03-14T04:22:05;98502.84;;;10.37;74.83
68807;BME280;55800;54.272;18.558;2023-03-14T04:24:43;98495.09;;;10.34;74.76
68807;BME280;55800;54.272;18.558;2023-03-14T04:27:13;98496.78;;;10.35;74.88
68807;BME280;55800;54.272;18.558;2023-03-14T04:29:45;98489.97;;;10.31;74.86
68807;BME280;55800;54.272;18.558;2023-03-14T04:32:18;98483.53;;;10.34;75.02
68807;BME280;55800;54.272;18.558;2023-03-14T04:34:48;98493.88;;;10.38;74.63
68807;BME280;55800;54.272;18.558;2023-03-14T04:37:17;98488.66;;;10.37;74.59
68807;BME280;55800;54.272;18.558;2023-03-14T04:39:47;98487.81;;;10.36;74.73
68807;BME280;55800;54.272;18.558;2023-03-14T04:42:24;98479.81;;;10.36;74.62
68807;BME280;55800;54.272;18.558;2023-03-14T04:44:53;98478.38;;;10.43;74.44
68807;BME280;55800;54.272;18.558;2023-03-14T04:47:27;98474.50;;;10.47;74.29
68807;BME280;55800;54.272;18.558;2023-03-14T04:49:57;98465.75;;;10.45;74.51
68807;BME280;55800;54.272;18.558;2023-03-14T04:52:27;98468.53;;;10.44;74.48
68807;BME280;55800;54.272;18.558;2023-03-14T04:54:57;98456.53;;;10.49;74.36
68807;BME280;55800;54.272;18.558;2023-03-14T04:57:27;98459.44;;;10.46;74.44
68807;BME280;55800;54.272;18.558;2023-03-14T04:59:57;98445.34;;;10.44;74.30
68807;BME280;55800;54.272;18.558;2023-03-14T05:02:59;98449.22;;;10.40;74.37
68807;BME280;55800;54.272;18.558;2023-03-14T05:05:47;98431.47;;;10.39;74.37
68807;BME280;55800;54.272;18.558;2023-03-14T05:08:39;98418.38;;;10.36;74.22
68807;BME280;55800;54.272;18.558;2023-03-14T05:11:20;98424.78;;;10.34;74.13
68807;BME280;55800;54.272;18.558;2023-03-14T05:14:02;98411.44;;;10.34;73.95
68807;BME280;55800;54.272;18.558;2023-03-14T05:17:04;98409.03;;;10.31;73.91
68807;BME280;55800;54.272;18.558;2023-03-14T05:19:45;98403.03;;;10.27;73.83
68807;BME280;55800;54.272;18.558;2023-03-14T05:22:35;98396.00;;;10.26;73.90
68807;BME280;55800;54.272;18.558;2023-03-14T05:25:31;98404.97;;;10.25;73.63
68807;BME280;55800;54.272;18.558;2023-03-14T05:28:23;98410.56;;;10.22;73.59
68807;BME280;55800;54.272;18.558;2023-03-14T05:31:08;98408.97;;;10.19;73.44
68807;BME280;55800;54.272;18.558;2023-03-14T05:34:07;98403.72;;;10.18;73.37
68807;BME280;55800;54.272;18.558;2023-03-14T05:36:57;98412.94;;;10.14;73.26
68807;BME280;55800;54.272;18.558;2023-03-14T05:39:45;98425.75;;;10.09;73.34
68807;BME280;55800;54.272;18.558;2023-03-14T05:42:37;98426.72;;;10.08;73.64
68807;BME280;55800;54.272;18.558;2023-03-14T05:45:17;98428.53;;;10.07;73.53
68807;BME280;55800;54.272;18.558;2023-03-14T05:48:13;98432.16;;;10.06;73.32
68807;BME280;55800;54.272;18.558;2023-03-14T05:51:15;98445.66;;;10.05;73.61
68807;BME280;55800;54.272;18.558;2023-03-14T05:53:55;98444.91;;;10.03;73.57
68807;BME280;55800;54.272;18.558;2023-03-14T05:56:40;98428.88;;;10.03;73.57
68807;BME280;55800;54.272;18.558;2023-03-14T05:59:28;98434.97;;;10.05;73.74
68807;BME280;55800;54.272;18.558;2023-03-14T06:02:06;98429.38;;;10.08;73.70
68807;BME280;55800;54.272;18.558;2023-03-14T06:04:47;98442.00;;;10.06;73.66
68807;BME280;55800;54.272;18.558;2023-03-14T06:07:17;98443.59;;;10.08;73.90
68807;BME280;55800;54.272;18.558;2023-03-14T06:09:48;98443.59;;;10.08;73.81
68807;BME280;55800;54.272;18.558;2023-03-14T06:12:18;98447.88;;;10.11;73.86
68807;BME280;55800;54.272;18.558;2023-03-14T06:14:48;98442.22;;;10.15;73.83
68807;BME280;55800;54.272;18.558;2023-03-14T06:17:18;98455.66;;;10.14;73.84
68807;BME280;55800;54.272;18.558;2023-03-14T06:19:53;98463.44;;;10.17;73.98
68807;BME280;55800;54.272;18.558;2023-03-14T06:22:23;98453.50;;;10.19;73.81
68807;BME280;55800;54.272;18.558;2023-03-14T06:24:55;98449.75;;;10.22;73.95
68807;BME280;55800;54.272;18.558;2023-03-14T06:27:26;98449.63;;;10.23;73.99
68807;BME280;55800;54.272;18.558;2023-03-14T06:29:57;98447.69;;;10.25;74.32
68807;BME280;55800;54.272;18.558;2023-03-14T06:32:30;98452.81;;;10.28;74.12
68807;BME280;55800;54.272;18.558;2023-03-14T06:35:04;98452.56;;;10.31;74.25
68807;BME280;55800;54.272;18.558;2023-03-14T06:37:39;98455.03;;;10.34;74.01
68807;BME280;55800;54.272;18.558;2023-03-14T06:40:11;98455.75;;;10.36;73.99
68807;BME280;55800;54.272;18.558;2023-03-14T06:42:57;98455.50;;;10.39;74.00
68807;BME280;55800;54.272;18.558;2023-03-14T06:45:29;98461.97;;;10.48;73.85
68807;BME280;55800;54.272;18.558;2023-03-14T06:48:00;98443.06;;;10.51;73.90
68807;BME280;55800;54.272;18.558;2023-03-14T06:50:38;98452.66;;;10.53;73.97
68807;BME280;55800;54.272;18.558;2023-03-14T06:53:09;98455.22;;;10.55;73.96
68807;BME280;55800;54.272;18.558;2023-03-14T06:55:43;98457.53;;;10.59;73.83
68807;BME280;55800;54.272;18.558;2023-03-14T06:58:16;98450.03;;;10.64;74.02
68807;BME280;55800;54.272;18.558;2023-03-14T07:00:46;98454.06;;;10.70;74.23
68807;BME280;55800;54.272;18.558;2023-03-14T07:03:21;98456.25;;;10.76;74.14
68807;BME280;55800;54.272;18.558;2023-03-14T07:05:53;98462.31;;;10.78;74.40
68807;BME280;55800;54.272;18.558;2023-03-14T07:08:23;98455.91;;;10.80;74.39
68807;BME280;55800;54.272;18.558;2023-03-14T07:10:56;98461.28;;;10.91;74.32
68807;BME280;55800;54.272;18.558;2023-03-14T07:13:29;98465.63;;;10.92;74.01
68807;BME280;55800;54.272;18.558;2023-03-14T07:16:03;98453.63;;;10.98;74.01
68807;BME280;55800;54.272;18.558;2023-03-14T07:18:33;98455.22;;;11.01;74.18
68807;BME280;55800;54.272;18.558;2023-03-14T07:21:05;98455.97;;;11.03;74.29
68807;BME280;55800;54.272;18.558;2023-03-14T07:23:34;98465.78;;;11.02;74.34
68807;BME280;55800;54.272;18.558;2023-03-14T07:26:05;98442.47;;;11.04;74.37
68807;BME280;55800;54.272;18.558;2023-03-14T07:28:38;98444.53;;;11.12;74.34
68807;BME280;55800;54.272;18.558;2023-03-14T07:31:12;98426.31;;;11.17;74.50
68807;BME280;55800;54.272;18.558;2023-03-14T07:33:42;98426.31;;;11.17;74.26
68807;BME280;55800;54.272;18.558;2023-03-14T07:36:12;98426.91;;;11.20;74.54
68807;BME280;55800;54.272;18.558;2023-03-14T07:38:44;98406.97;;;11.24;74.78
68807;BME280;55800;54.272;18.558;2023-03-14T07:41:15;98414.38;;;11.32;74.79
68807;BME280;55800;54.272;18.558;2023-03-14T07:44:02;98424.38;;;11.41;74.67
68807;BME280;55800;54.272;18.558;2023-03-14T07:46:32;98423.59;;;11.50;74.91
68807;BME280;55800;54.272;18.558;2023-03-14T07:49:01;98425.06;;;11.54;75.14
68807;BME280;55800;54.272;18.558;2023-03-14T07:51:30;98418.00;;;11.64;74.84
68807;BME280;55800;54.272;18.558;2023-03-14T07:54:00;98407.69;;;11.70;74.73
68807;BME280;55800;54.272;18.558;2023-03-14T07:56:31;98416.91;;;11.77;74.90
68807;BME280;55800;54.272;18.558;2023-03-14T07:59:00;98407.16;;;11.88;74.77
68807;BME280;55800;54.272;18.558;2023-03-14T08:01:31;98404.81;;;11.94;74.78
68807;BME280;55800;54.272;18.558;2023-03-14T08:04:01;98398.84;;;12.02;74.73
68807;BME280;55800;54.272;18.558;2023-03-14T08:06:30;98405.13;;;12.12;74.59
68807;BME280;55800;54.272;18.558;2023-03-14T08:08:59;98412.06;;;12.14;74.88
68807;BME280;55800;54.272;18.558;2023-03-14T08:11:30;98414.38;;;12.19;74.62
68807;BME280;55800;54.272;18.558;2023-03-14T08:13:59;98412.03;;;12.25;74.79
68807;BME280;55800;54.272;18.558;2023-03-14T08:16:29;98399.94;;;12.31;74.91
68807;BME280;55800;54.272;18.558;2023-03-14T08:18:58;98391.50;;;12.35;74.81
68807;BME280;55800;54.272;18.558;2023-03-14T09:54:24;98394.63;;;13.72;72.08
68807;BME280;55800;54.272;18.558;2023-03-14T09:56:59;98405.69;;;13.69;72.16
68807;BME280;55800;54.272;18.558;2023-03-14T09:59:30;98410.03;;;13.70;71.91
68807;BME280;55800;54.272;18.558;2023-03-14T10:02:02;98404.09;;;13.67;71.98
68807;BME280;55800;54.272;18.558;2023-03-14T10:04:41;98405.53;;;13.61;71.95
68807;BME280;55800;54.272;18.558;2023-03-14T10:07:15;98401.38;;;13.57;72.09
68807;BME280;55800;54.272;18.558;2023-03-14T10:09:50;98406.03;;;13.55;71.47
68807;BME280;55800;54.272;18.558;2023-03-14T10:12:21;98408.00;;;13.53;71.65
68807;BME280;55800;54.272;18.558;2023-03-14T10:15:03;98400.25;;;13.50;71.64
68807;BME280;55800;54.272;18.558;2023-03-14T10:17:40;98388.91;;;13.47;71.54
68807;BME280;55800;54.272;18.558;2023-03-14T10:20:28;98400.09;;;13.42;71.52
68807;BME280;55800;54.272;18.558;2023-03-14T10:23:02;98404.44;;;13.43;71.58
68807;BME280;55800;54.272;18.558;2023-03-14T10:25:36;98409.09;;;13.41;71.76
68807;BME280;55800;54.272;18.558;2023-03-14T10:28:10;98413.06;;;13.37;71.53
68807;BME280;55800;54.272;18.558;2023-03-14T10:30:52;98403.75;;;13.41;71.47
68807;BME280;55800;54.272;18.558;2023-03-14T10:33:23;98401.75;;;13.43;71.71
68807;BME280;55800;54.272;18.558;2023-03-14T10:35:55;98415.47;;;13.40;72.12
68807;BME280;55800;54.272;18.558;2023-03-14T10:38:27;98413.34;;;13.44;71.73
68807;BME280;55800;54.272;18.558;2023-03-14T10:40:59;98414.22;;;13.44;72.00
68807;BME280;55800;54.272;18.558;2023-03-14T10:43:32;98413.06;;;13.47;71.90
68807;BME280;55800;54.272;18.558;2023-03-14T10:46:08;98422.56;;;13.51;72.12
68807;BME280;55800;54.272;18.558;2023-03-14T10:48:58;98415.66;;;13.58;72.08
68807;BME280;55800;54.272;18.558;2023-03-14T10:51:33;98415.41;;;13.61;71.76
68807;BME280;55800;54.272;18.558;2023-03-14T10:54:12;98407.91;;;13.64;71.85
68807;BME280;55800;54.272;18.558;2023-03-14T10:56:43;98412.16;;;13.67;71.75
68807;BME280;55800;54.272;18.558;2023-03-14T10:59:14;98394.63;;;13.72;71.60
68807;BME280;55800;54.272;18.558;2023-03-14T11:01:50;98392.09;;;13.71;71.42
68807;BME280;55800;54.272;18.558;2023-03-14T11:04:43;98384.34;;;13.68;71.31
68807;BME280;55800;54.272;18.558;2023-03-14T11:07:21;98381.22;;;13.72;71.79
68807;BME280;55800;54.272;18.558;2023-03-14T11:09:57;98382.78;;;13.75;72.14
68807;BME280;55800;54.272;18.558;2023-03-14T11:12:41;98374.16;;;13.81;71.63
68807;BME280;55800;54.272;18.558;2023-03-14T11:15:17;98374.88;;;13.83;71.03
68807;BME280;55800;54.272;18.558;2023-03-14T11:17:58;98369.94;;;13.88;71.41
68807;BME280;55800;54.272;18.558;2023-03-14T11:20:38;98380.53;;;13.89;71.31
68807;BME280;55800;54.272;18.558;2023-03-14T11:23:14;98367.56;;;13.94;71.47
68807;BME280;55800;54.272;18.558;2023-03-14T11:25:52;98369.97;;;13.97;71.68
68807;BME280;55800;54.272;18.558;2023-03-14T11:28:33;98378.75;;;14.09;70.96
68807;BME280;55800;54.272;18.558;2023-03-14T11:31:12;98373.66;;;14.16;71.32
68807;BME280;55800;54.272;18.558;2023-03-14T11:33:50;98364.88;;;14.23;71.20
68807;BME280;55800;54.272;18.558;2023-03-14T11:36:29;98379.63;;;14.29;70.73
68807;BME280;55800;54.272;18.558;2023-03-14T11:39:00;98377.66;;;14.31;70.57
68807;BME280;55800;54.272;18.558;2023-03-14T11:41:35;98363.63;;;14.37;71.16
68807;BME280;55800;54.272;18.558;2023-03-14T11:44:14;98356.00;;;14.42;70.49
68807;BME280;55800;54.272;18.558;2023-03-14T11:46:51;98350.59;;;14.51;71.01
68807;BME280;55800;54.272;18.558;2023-03-14T11:49:31;98357.97;;;14.59;71.04
68807;BME280;55800;54.272;18.558;2023-03-14T11:52:10;98360.34;;;14.71;71.28
68807;BME280;55800;54.272;18.558;2023-03-14T11:54:47;98348.16;;;14.77;70.76
68807;BME280;55800;54.272;18.558;2023-03-14T11:57:20;98346.97;;;14.89;70.98
68807;BME280;55800;54.272;18.558;2023-03-14T11:59:55;98347.13;;;14.97;70.04
68807;BME280;55800;54.272;18.558;2023-03-14T12:02:33;98352.19;;;15.00;70.76
68807;BME280;55800;54.272;18.558;2023-03-14T12:05:40;98354.28;;;15.06;69.88
68807;BME280;55800;54.272;18.558;2023-03-14T12:08:39;98361.31;;;15.17;69.50
68807;BME280;55800;54.272;18.558;2023-03-14T12:11:14;98367.28;;;15.20;69.32
68807;BME280;55800;54.272;18.558;2023-03-14T12:13:49;98361.59;;;15.23;69.58
68807;BME280;55800;54.272;18.558;2023-03-14T12:16:35;98360.16;;;15.29;69.67
68807;BME280;55800;54.272;18.558;2023-03-14T12:19:33;98362.38;;;15.33;68.75
68807;BME280;55800;54.272;18.558;2023-03-14T12:22:19;98361.13;;;15.37;69.47
68807;BME280;55800;54.272;18.558;2023-03-14T12:24:53;98364.19;;;15.42;69.03
68807;BME280;55800;54.272;18.558;2023-03-14T12:27:44;98364.34;;;15.41;68.12
68807;BME280;55800;54.272;18.558;2023-03-14T12:30:28;98372.28;;;15.42;67.79
68807;BME280;55800;54.272;18.558;2023-03-14T12:36:18;98365.22;;;15.41;67.61
68807;BME280;55800;54.272;18.558;2023-03-14T12:39:25;98357.13;;;15.41;67.67
68807;BME280;55800;54.272;18.558;2023-03-14T12:42:05;98353.03;;;15.37;67.59
68807;BME280;55800;54.272;18.558;2023-03-14T12:44:41;98358.56;;;15.36;68.70
68807;BME280;55800;54.272;18.558;2023-03-14T12:47:43;98348.19;;;15.41;67.77
68807;BME280;55800;54.272;18.558;2023-03-14T12:50:19;98345.66;;;15.39;66.91
68807;BME280;55800;54.272;18.558;2023-03-14T12:53:19;98349.06;;;15.41;67.44
68807;BME280;55800;54.272;18.558;2023-03-14T12:56:00;98346.09;;;15.44;67.84
68807;BME280;55800;54.272;18.558;2023-03-14T12:58:34;98350.59;;;15.44;66.72
68807;BME280;55800;54.272;18.558;2023-03-14T13:01:16;98358.56;;;15.45;67.34
68807;BME280;55800;54.272;18.558;2023-03-14T13:03:49;98354.84;;;15.46;67.06
68807;BME280;55800;54.272;18.558;2023-03-14T13:06:46;98362.66;;;15.49;66.43
68807;BME280;55800;54.272;18.558;2023-03-14T13:09:48;98353.72;;;15.49;67.12
68807;BME280;55800;54.272;18.558;2023-03-14T13:12:25;98351.56;;;15.52;66.85
68807;BME280;55800;54.272;18.558;2023-03-14T13:14:59;98335.81;;;15.57;67.16
68807;BME280;55800;54.272;18.558;2023-03-14T13:17:33;98325.72;;;15.59;66.04
68807;BME280;55800;54.272;18.558;2023-03-14T13:20:11;98336.25;;;15.53;65.94
68807;BME280;55800;54.272;18.558;2023-03-14T13:22:48;98331.72;;;15.53;65.77
68807;BME280;55800;54.272;18.558;2023-03-14T13:25:20;98323.34;;;15.56;66.77
68807;BME280;55800;54.272;18.558;2023-03-14T13:27:53;98327.56;;;15.59;65.31
68807;BME280;55800;54.272;18.558;2023-03-14T13:30:25;98331.66;;;15.63;65.85
68807;BME280;55800;54.272;18.558;2023-03-14T13:32:56;98335.03;;;15.65;65.44
68807;BME280;55800;54.272;18.558;2023-03-14T13:35:27;98329.19;;;15.70;65.44
68807;BME280;55800;54.272;18.558;2023-03-14T13:37:59;98327.59;;;15.77;65.63
68807;BME280;55800;54.272;18.558;2023-03-14T13:40:46;98329.84;;;15.81;65.73
68807;BME280;55800;54.272;18.558;2023-03-14T13:43:18;98342.72;;;15.87;65.93
68807;BME280;55800;54.272;18.558;2023-03-14T13:45:51;98342.25;;;15.92;65.53
68807;BME280;55800;54.272;18.558;2023-03-14T13:48:22;98337.84;;;15.91;65.20
68807;BME280;55800;54.272;18.558;2023-03-14T13:50:58;98335.03;;;15.92;64.61
68807;BME280;55800;54.272;18.558;2023-03-14T13:53:28;98332.56;;;15.99;65.94
68807;BME280;55800;54.272;18.558;2023-03-14T13:56:02;98337.00;;;16.08;64.37
68807;BME280;55800;54.272;18.558;2023-03-14T13:58:32;98332.78;;;16.23;66.53
68807;BME280;55800;54.272;18.558;2023-03-14T14:01:14;98328.91;;;16.43;66.93
68807;BME280;55800;54.272;18.558;2023-03-14T14:03:47;98328.09;;;16.60;65.08
68807;BME280;55800;54.272;18.558;2023-03-14T14:06:31;98332.50;;;16.69;64.51
68807;BME280;55800;54.272;18.558;2023-03-14T14:09:09;98349.78;;;16.76;65.15
68807;BME280;55800;54.272;18.558;2023-03-14T14:11:44;98340.31;;;16.72;62.99
68807;BME280;55800;54.272;18.558;2023-03-14T14:14:38;98344.31;;;16.68;63.79
68807;BME280;55800;54.272;18.558;2023-03-14T14:17:11;98350.00;;;16.65;64.50
68807;BME280;55800;54.272;18.558;2023-03-14T14:19:42;98354.72;;;16.63;64.82
68807;BME280;55800;54.272;18.558;2023-03-14T14:22:14;98359.19;;;16.72;65.05
68807;BME280;55800;54.272;18.558;2023-03-14T14:24:43;98358.25;;;16.81;65.51
68807;BME280;55800;54.272;18.558;2023-03-14T14:27:17;98353.06;;;16.88;65.47
68807;BME280;55800;54.272;18.558;2023-03-14T14:29:58;98350.72;;;16.93;65.59
68807;BME280;55800;54.272;18.558;2023-03-14T14:32:35;98360.31;;;16.87;65.56
68807;BME280;55800;54.272;18.558;2023-03-14T14:35:06;98365.50;;;16.81;64.80
68807;BME280;55800;54.272;18.558;2023-03-14T14:37:44;98352.78;;;16.73;64.49
68807;BME280;55800;54.272;18.558;2023-03-14T14:40:19;98349.34;;;16.63;64.03
68807;BME280;55800;54.272;18.558;2023-03-14T14:42:53;98349.00;;;16.49;64.57
68807;BME280;55800;54.272;18.558;2023-03-14T14:45:23;98347.41;;;16.38;65.23
68807;BME280;55800;54.272;18.558;2023-03-14T14:47:54;98354.56;;;16.29;64.16
68807;BME280;55800;54.272;18.558;2023-03-14T14:50:30;98352.72;;;16.12;64.04
68807;BME280;55800;54.272;18.558;2023-03-14T14:53:01;98359.19;;;16.02;64.42
68807;BME280;55800;54.272;18.558;2023-03-14T14:55:33;98350.63;;;15.89;65.38
68807;BME280;55800;54.272;18.558;2023-03-14T14:58:20;98354.53;;;15.77;64.67
68807;BME280;55800;54.272;18.558;2023-03-14T15:00:55;98341.28;;;15.66;64.46
68807;BME280;55800;54.272;18.558;2023-03-14T15:03:28;98343.59;;;15.60;64.79
68807;BME280;55800;54.272;18.558;2023-03-14T15:05:58;98341.34;;;15.56;64.79
68807;BME280;55800;54.272;18.558;2023-03-14T15:08:28;98342.25;;;15.47;64.76
68807;BME280;55800;54.272;18.558;2023-03-14T15:10:58;98344.13;;;15.37;64.73
68807;BME280;55800;54.272;18.558;2023-03-14T15:13:34;98336.47;;;15.32;64.33